createdAt,value
2023-05-11T00:00:10.050Z,16.30
2023-05-11T00:01:10.070Z,17.30
2023-05-11T00:02:10.061Z,16.10
2023-05-11T00:03:10.163Z,16.30
2023-05-11T00:04:10.050Z,16.20
2023-05-11T00:05:09.988Z,17.80
2023-05-11T00:06:10.000Z,19.50
2023-05-11T00:07:09.982Z,17.60
2023-05-11T00:08:09.993Z,17.40
2023-05-11T00:09:09.973Z,20.70
2023-05-11T00:10:10.491Z,18.60
2023-05-11T00:11:09.934Z,20.10
2023-05-11T00:12:09.914Z,19.00
2023-05-11T00:13:09.920Z,20.00
2023-05-11T00:14:09.883Z,18.00
2023-05-11T00:15:09.879Z,19.00
2023-05-11T00:16:09.957Z,18.90
2023-05-11T00:17:09.874Z,19.20
2023-05-11T00:18:09.893Z,17.70
2023-05-11T00:19:09.841Z,19.80
2023-05-11T00:20:16.583Z,20.40
2023-05-11T00:21:09.825Z,20.20
2023-05-11T00:22:09.794Z,19.00
2023-05-11T00:23:09.812Z,18.50
2023-05-11T00:24:09.774Z,17.60
2023-05-11T00:25:09.805Z,18.20
2023-05-11T00:26:09.774Z,17.30
2023-05-11T00:27:09.773Z,19.30
2023-05-11T00:28:09.727Z,19.80
2023-05-11T00:29:09.718Z,18.90
2023-05-11T00:30:09.747Z,19.70
2023-05-11T00:31:09.742Z,17.60
2023-05-11T00:32:09.680Z,18.50
2023-05-11T00:33:09.693Z,18.60
2023-05-11T00:34:09.661Z,19.00
2023-05-11T00:35:09.651Z,17.00
2023-05-11T00:36:09.647Z,18.20
2023-05-11T00:37:09.624Z,19.40
2023-05-11T00:38:09.666Z,18.30
2023-05-11T00:39:09.606Z,17.20
2023-05-11T00:40:09.585Z,17.20
2023-05-11T00:41:09.597Z,18.50
2023-05-11T00:42:09.562Z,20.10
2023-05-11T00:43:09.592Z,19.90
2023-05-11T00:44:09.620Z,20.80
2023-05-11T00:45:09.533Z,17.80
2023-05-11T00:46:09.520Z,18.30
2023-05-11T00:47:09.643Z,23.30
2023-05-11T00:48:09.505Z,22.30
2023-05-11T00:49:09.638Z,21.60
2023-05-11T00:50:09.585Z,20.60
2023-05-11T00:51:09.585Z,19.30
2023-05-11T00:52:09.556Z,19.60
2023-05-11T00:53:09.514Z,21.70
2023-05-11T00:54:09.492Z,19.60
2023-05-11T00:55:09.500Z,20.40
2023-05-11T00:56:09.475Z,21.40
2023-05-11T00:57:09.439Z,21.30
2023-05-11T00:58:09.400Z,22.10
2023-05-11T00:59:09.380Z,21.30
2023-05-11T01:00:09.404Z,20.60
2023-05-11T01:01:09.421Z,21.70
2023-05-11T01:02:09.459Z,23.40
2023-05-11T01:03:09.413Z,21.40
2023-05-11T01:04:09.317Z,21.60
2023-05-11T01:05:09.326Z,24.20
2023-05-11T01:06:09.342Z,20.50
2023-05-11T01:07:09.311Z,20.50
2023-05-11T01:08:09.278Z,22.50
2023-05-11T01:09:09.282Z,22.10
2023-05-11T01:10:09.264Z,26.70
2023-05-11T01:11:09.305Z,24.20
2023-05-11T01:12:09.319Z,25.80
2023-05-11T01:13:09.314Z,25.70
2023-05-11T01:14:09.266Z,25.80
2023-05-11T01:15:09.214Z,24.90
2023-05-11T01:16:09.284Z,27.00
2023-05-11T01:17:09.203Z,27.20
2023-05-11T01:18:09.182Z,27.50
2023-05-11T01:19:09.366Z,25.00
2023-05-11T01:20:09.153Z,23.20
2023-05-11T01:21:09.138Z,24.30
2023-05-11T01:22:09.136Z,26.50
2023-05-11T01:23:09.112Z,27.70
2023-05-11T01:24:09.158Z,28.40
2023-05-11T01:25:09.099Z,28.60
2023-05-11T01:26:09.088Z,28.80
2023-05-11T01:27:09.213Z,28.20
2023-05-11T01:28:09.141Z,30.40
2023-05-11T01:29:09.048Z,31.40
2023-05-11T01:30:09.041Z,32.30
2023-05-11T01:31:09.042Z,30.80
2023-05-11T01:32:09.196Z,30.10
2023-05-11T01:33:09.162Z,34.40
2023-05-11T01:34:09.064Z,28.80
2023-05-11T01:35:09.009Z,32.00
2023-05-11T01:36:09.016Z,34.30
2023-05-11T01:37:08.999Z,35.00
2023-05-11T01:38:08.947Z,30.90
2023-05-11T01:39:08.982Z,31.70
2023-05-11T01:40:08.963Z,33.90
2023-05-11T01:41:09.060Z,29.60
2023-05-11T01:42:08.935Z,32.70
2023-05-11T01:43:08.920Z,33.00
2023-05-11T01:44:08.885Z,32.70
2023-05-11T01:45:08.932Z,33.50
2023-05-11T01:46:08.896Z,33.90
2023-05-11T01:47:08.874Z,37.00
2023-05-11T01:48:08.898Z,31.80
2023-05-11T01:49:08.831Z,34.50
2023-05-11T01:50:08.823Z,34.20
2023-05-11T01:51:08.818Z,35.70
2023-05-11T01:52:08.784Z,32.20
2023-05-11T01:53:08.775Z,34.50
2023-05-11T01:54:08.766Z,31.10
2023-05-11T01:55:08.797Z,34.50
2023-05-11T01:56:08.768Z,32.00
2023-05-11T01:57:08.763Z,32.30
2023-05-11T01:58:08.808Z,30.50
2023-05-11T01:59:08.731Z,29.60
2023-05-11T02:00:08.707Z,33.50
2023-05-11T02:01:08.815Z,30.30
2023-05-11T02:02:08.698Z,28.00
2023-05-11T02:03:08.829Z,29.50
2023-05-11T02:04:08.798Z,34.70
2023-05-11T02:05:08.707Z,29.50
2023-05-11T02:06:08.702Z,33.00
2023-05-11T02:07:08.649Z,28.10
2023-05-11T02:08:08.723Z,27.70
2023-05-11T02:09:08.654Z,27.20
2023-05-11T02:10:08.687Z,27.20
2023-05-11T02:11:08.608Z,26.50
2023-05-11T02:12:08.637Z,28.00
2023-05-11T02:13:08.687Z,25.30
2023-05-11T02:14:08.653Z,25.60
2023-05-11T02:15:08.552Z,26.70
2023-05-11T02:16:08.665Z,27.10
2023-05-11T02:17:08.523Z,26.00
2023-05-11T02:18:08.622Z,27.70
2023-05-11T02:19:08.613Z,25.20
2023-05-11T02:20:08.601Z,25.70
2023-05-11T02:21:08.520Z,23.40
2023-05-11T02:22:08.490Z,24.70
2023-05-11T02:23:08.519Z,28.90
2023-05-11T02:24:08.426Z,30.10
2023-05-11T02:25:08.420Z,26.90
2023-05-11T02:26:08.425Z,28.40
2023-05-11T02:27:08.436Z,26.30
2023-05-11T02:28:08.541Z,27.20
2023-05-11T02:29:08.365Z,26.20
2023-05-11T02:30:08.358Z,28.80
2023-05-11T02:31:08.425Z,28.20
2023-05-11T02:32:08.342Z,26.70
2023-05-11T02:33:08.398Z,27.30
2023-05-11T02:34:08.318Z,27.30
2023-05-11T02:35:08.303Z,25.40
2023-05-11T02:36:08.313Z,24.50
2023-05-11T02:37:08.282Z,26.80
2023-05-11T02:38:08.274Z,26.40
2023-05-11T02:39:08.298Z,26.70
2023-05-11T02:40:08.363Z,25.90
2023-05-11T02:41:08.422Z,27.00
2023-05-11T02:42:08.237Z,24.20
2023-05-11T02:43:08.233Z,23.20
2023-05-11T02:44:08.214Z,26.20
2023-05-11T02:45:08.237Z,25.90
2023-05-11T02:46:08.188Z,26.60
2023-05-11T02:47:08.175Z,28.40
2023-05-11T02:48:08.180Z,30.00
2023-05-11T02:49:08.145Z,27.30
2023-05-11T02:50:08.139Z,26.90
2023-05-11T02:51:08.132Z,31.00
2023-05-11T02:52:08.273Z,25.30
2023-05-11T02:53:08.126Z,27.10
2023-05-11T02:54:08.145Z,25.40
2023-05-11T02:55:08.084Z,27.50
2023-05-11T02:56:08.138Z,26.90
2023-05-11T02:57:08.080Z,30.80
2023-05-11T02:58:08.184Z,31.00
2023-05-11T02:59:08.018Z,30.90
2023-05-11T03:00:08.032Z,28.60
2023-05-11T03:01:08.165Z,32.00
2023-05-11T03:02:08.040Z,31.30
2023-05-11T03:03:08.064Z,29.20
2023-05-11T03:04:07.972Z,33.10
2023-05-11T03:05:07.967Z,34.30
2023-05-11T03:06:08.115Z,32.70
2023-05-11T03:07:07.980Z,33.10
2023-05-11T03:08:08.089Z,33.90
2023-05-11T03:09:11.036Z,32.80
2023-05-11T03:10:08.126Z,33.40
2023-05-11T03:11:07.976Z,32.60
2023-05-11T03:12:07.912Z,33.20
2023-05-11T03:13:07.870Z,34.30
2023-05-11T03:14:07.894Z,31.50
2023-05-11T03:15:07.923Z,33.50
2023-05-11T03:16:07.977Z,34.10
2023-05-11T03:17:07.958Z,36.10
2023-05-11T03:18:08.107Z,36.30
2023-05-11T03:19:07.956Z,27.60
2023-05-11T03:20:07.827Z,29.50
2023-05-11T03:21:07.819Z,29.70
2023-05-11T03:22:07.770Z,29.00
2023-05-11T03:23:07.761Z,32.90
2023-05-11T03:24:07.753Z,30.30
2023-05-11T03:25:07.756Z,29.30
2023-05-11T03:26:07.772Z,33.50
2023-05-11T03:27:07.743Z,31.60
2023-05-11T03:28:07.702Z,31.70
2023-05-11T03:29:07.698Z,27.30
2023-05-11T03:30:07.742Z,29.80
2023-05-11T03:31:07.735Z,27.70
2023-05-11T03:32:07.732Z,26.30
2023-05-11T03:33:07.821Z,27.00
2023-05-11T03:34:07.657Z,32.20
2023-05-11T03:35:07.778Z,28.90
2023-05-11T03:36:07.706Z,28.90
2023-05-11T03:37:07.726Z,26.60
2023-05-11T03:38:07.871Z,26.60
2023-05-11T03:39:07.654Z,28.60
2023-05-11T03:40:07.673Z,29.60
2023-05-11T03:41:07.588Z,26.10
2023-05-11T03:42:07.561Z,29.40
2023-05-11T03:43:08.467Z,32.40
2023-05-11T03:44:08.258Z,26.40
2023-05-11T03:45:07.527Z,29.50
2023-05-11T03:46:07.708Z,28.60
2023-05-11T03:47:07.581Z,25.10
2023-05-11T03:48:07.619Z,26.90
2023-05-11T03:49:07.670Z,24.20
2023-05-11T03:50:08.697Z,25.90
2023-05-11T03:51:07.670Z,23.80
2023-05-11T03:52:07.545Z,23.00
2023-05-11T03:53:07.509Z,25.90
2023-05-11T03:54:07.958Z,24.10
2023-05-11T03:55:07.442Z,23.80
2023-05-11T03:56:07.519Z,24.00
2023-05-11T03:57:07.667Z,25.10
2023-05-11T03:58:07.613Z,27.20
2023-05-11T03:59:07.447Z,26.40
2023-05-11T04:00:07.440Z,27.10
2023-05-11T04:01:07.448Z,29.90
2023-05-11T04:02:07.359Z,27.10
2023-05-11T04:03:07.553Z,26.10
2023-05-11T04:04:07.519Z,28.50
2023-05-11T04:05:07.387Z,27.30
2023-05-11T04:06:07.342Z,29.40
2023-05-11T04:07:07.373Z,26.80
2023-05-11T04:08:07.294Z,27.40
2023-05-11T04:09:07.540Z,27.60
2023-05-11T04:10:07.379Z,23.70
2023-05-11T04:11:07.364Z,27.50
2023-05-11T04:12:07.333Z,27.10
2023-05-11T04:13:07.211Z,25.50
2023-05-11T04:14:07.224Z,27.40
2023-05-11T04:15:07.229Z,28.00
2023-05-11T04:16:07.197Z,27.80
2023-05-11T04:17:07.147Z,28.70
2023-05-11T04:18:07.249Z,26.50
2023-05-11T04:19:07.271Z,27.70
2023-05-11T04:20:07.150Z,28.40
2023-05-11T04:21:07.180Z,25.80
2023-05-11T04:22:07.090Z,25.50
2023-05-11T04:23:09.036Z,28.80
2023-05-11T04:24:07.092Z,29.40
2023-05-11T04:25:07.055Z,29.60
2023-05-11T04:26:07.061Z,26.60
2023-05-11T04:27:07.029Z,28.70
2023-05-11T04:28:07.021Z,27.10
2023-05-11T04:29:07.016Z,31.30
2023-05-11T04:30:07.032Z,27.80
2023-05-11T04:31:07.090Z,32.90
2023-05-11T04:32:06.999Z,25.70
2023-05-11T04:33:07.017Z,29.90
2023-05-11T04:34:06.957Z,34.30
2023-05-11T04:35:06.936Z,33.20
2023-05-11T04:36:06.979Z,34.20
2023-05-11T04:37:06.913Z,29.00
2023-05-11T04:38:06.909Z,28.70
2023-05-11T04:39:07.951Z,30.70
2023-05-11T04:40:06.887Z,31.40
2023-05-11T04:41:06.952Z,31.20
2023-05-11T04:42:07.016Z,30.70
2023-05-11T04:43:06.871Z,31.40
2023-05-11T04:44:06.892Z,32.30
2023-05-11T04:45:06.859Z,28.80
2023-05-11T04:46:06.930Z,29.10
2023-05-11T04:47:08.340Z,28.20
2023-05-11T04:48:06.923Z,26.90
2023-05-11T04:49:06.782Z,30.30
2023-05-11T04:50:06.793Z,30.40
2023-05-11T04:51:06.821Z,29.50
2023-05-11T04:52:06.777Z,25.00
2023-05-11T04:53:06.738Z,25.10
2023-05-11T04:54:06.725Z,31.60
2023-05-11T04:55:06.726Z,29.30
2023-05-11T04:56:06.749Z,26.50
2023-05-11T04:57:06.750Z,29.10
2023-05-11T04:58:06.693Z,25.30
2023-05-11T04:59:06.678Z,29.20
2023-05-11T05:00:06.727Z,28.80
2023-05-11T05:01:06.735Z,29.20
2023-05-11T05:02:06.788Z,28.90
2023-05-11T05:03:06.699Z,33.70
2023-05-11T05:04:06.818Z,28.10
2023-05-11T05:05:06.674Z,28.70
2023-05-11T05:06:06.591Z,26.60
2023-05-11T05:07:06.613Z,28.60
2023-05-11T05:08:06.589Z,31.60
2023-05-11T05:09:06.582Z,28.10
2023-05-11T05:10:06.588Z,30.70
2023-05-11T05:11:06.586Z,29.80
2023-05-11T05:12:06.576Z,31.80
2023-05-11T05:13:06.518Z,32.40
2023-05-11T05:14:06.507Z,29.10
2023-05-11T05:15:06.503Z,31.50
2023-05-11T05:16:06.527Z,30.10
2023-05-11T05:17:06.649Z,28.20
2023-05-11T05:18:06.568Z,30.40
2023-05-11T05:19:06.537Z,30.10
2023-05-11T05:20:06.533Z,32.20
2023-05-11T05:21:06.554Z,28.10
2023-05-11T05:22:06.433Z,30.20
2023-05-11T05:23:06.417Z,31.50
2023-05-11T05:24:06.456Z,33.20
2023-05-11T05:25:06.396Z,29.30
2023-05-11T05:26:06.381Z,29.00
2023-05-11T05:27:06.440Z,32.30
2023-05-11T05:28:06.381Z,28.10
2023-05-11T05:29:06.332Z,31.60
2023-05-11T05:30:06.385Z,30.70
2023-05-11T05:31:06.380Z,30.70
2023-05-11T05:32:06.331Z,27.90
2023-05-11T05:33:06.390Z,26.10
2023-05-11T05:34:06.288Z,26.80
2023-05-11T05:35:06.288Z,29.10
2023-05-11T05:36:06.275Z,27.50
2023-05-11T05:37:06.310Z,28.90
2023-05-11T05:38:06.259Z,30.30
2023-05-11T05:39:06.225Z,28.80
2023-05-11T05:40:06.215Z,27.60
2023-05-11T05:41:06.270Z,27.90
2023-05-11T05:42:06.776Z,27.50
2023-05-11T05:43:06.184Z,22.40
2023-05-11T05:44:06.184Z,23.00
2023-05-11T05:45:06.157Z,22.80
2023-05-11T05:46:06.200Z,24.00
2023-05-11T05:47:06.148Z,23.10
2023-05-11T05:48:06.259Z,23.20
2023-05-11T05:49:06.158Z,23.10
2023-05-11T05:50:06.157Z,23.10
2023-05-11T05:51:06.097Z,22.80
2023-05-11T05:52:06.086Z,20.80
2023-05-11T05:53:06.078Z,22.30
2023-05-11T05:54:06.072Z,21.30
2023-05-11T05:55:06.061Z,22.00
2023-05-11T05:56:06.092Z,23.10
2023-05-11T05:57:06.034Z,20.30
2023-05-11T05:58:06.037Z,20.50
2023-05-11T05:59:06.019Z,23.40
2023-05-11T06:00:06.000Z,20.90
2023-05-11T06:01:05.976Z,20.50
2023-05-11T06:02:05.981Z,22.80
2023-05-11T06:03:06.053Z,21.50
2023-05-11T06:04:06.058Z,23.10
2023-05-11T06:05:06.108Z,22.30
2023-05-11T06:06:05.920Z,23.40
2023-05-11T06:07:05.941Z,20.70
2023-05-11T06:08:10.556Z,25.30
2023-05-11T06:09:05.950Z,25.60
2023-05-11T06:10:05.962Z,25.40
2023-05-11T06:11:05.887Z,22.60
2023-05-11T06:12:05.894Z,23.80
2023-05-11T06:13:05.846Z,22.30
2023-05-11T06:14:05.826Z,23.40
2023-05-11T06:15:05.823Z,21.60
2023-05-11T06:16:05.870Z,21.30
2023-05-11T06:17:05.808Z,23.60
2023-05-11T06:18:05.837Z,23.90
2023-05-11T06:19:05.872Z,22.20
2023-05-11T06:20:05.758Z,22.20
2023-05-11T06:21:05.784Z,22.40
2023-05-11T06:22:06.836Z,22.40
2023-05-11T06:23:05.741Z,22.00
2023-05-11T06:24:05.737Z,21.20
2023-05-11T06:25:05.813Z,24.50
2023-05-11T06:26:05.721Z,22.90
2023-05-11T06:27:05.720Z,24.40
2023-05-11T06:28:05.681Z,21.30
2023-05-11T06:29:05.665Z,21.50
2023-05-11T06:30:05.636Z,20.30
2023-05-11T06:31:05.712Z,20.20
2023-05-11T06:32:05.842Z,20.50
2023-05-11T06:33:05.703Z,21.00
2023-05-11T06:34:05.767Z,22.40
2023-05-11T06:35:05.627Z,19.20
2023-05-11T06:36:05.640Z,24.70
2023-05-11T06:37:05.681Z,20.40
2023-05-11T06:38:05.552Z,19.90
2023-05-11T06:39:05.536Z,22.70
2023-05-11T06:40:05.598Z,23.00
2023-05-11T06:41:05.534Z,22.00
2023-05-11T06:42:06.760Z,21.40
2023-05-11T06:43:05.518Z,18.20
2023-05-11T06:44:05.561Z,18.80
2023-05-11T06:45:05.512Z,18.30
2023-05-11T06:46:05.591Z,19.90
2023-05-11T06:47:05.530Z,22.30
2023-05-11T06:48:05.511Z,21.50
2023-05-11T06:49:05.449Z,19.60
2023-05-11T06:50:05.448Z,19.10
2023-05-11T06:51:05.411Z,17.80
2023-05-11T06:52:05.433Z,20.40
2023-05-11T06:53:05.576Z,23.90
2023-05-11T06:54:05.440Z,20.70
2023-05-11T06:55:05.587Z,22.00
2023-05-11T06:56:05.463Z,20.80
2023-05-11T06:57:05.505Z,23.30
2023-05-11T06:58:05.439Z,24.50
2023-05-11T06:59:05.342Z,21.50
2023-05-11T07:00:05.379Z,21.00
2023-05-11T07:01:05.483Z,20.50
2023-05-11T07:02:05.392Z,20.70
2023-05-11T07:03:05.642Z,22.10
2023-05-11T07:04:05.327Z,17.40
2023-05-11T07:05:05.347Z,20.00
2023-05-11T07:06:05.539Z,17.80
2023-05-11T07:07:05.285Z,17.60
2023-05-11T07:08:05.239Z,16.70
2023-05-11T07:09:05.324Z,16.20
2023-05-11T07:10:05.342Z,18.50
2023-05-11T07:11:05.191Z,20.30
2023-05-11T07:12:05.226Z,17.90
2023-05-11T07:13:05.397Z,19.00
2023-05-11T07:14:05.345Z,18.70
2023-05-11T07:15:05.179Z,20.10
2023-05-11T07:16:05.223Z,21.00
2023-05-11T07:17:05.370Z,23.20
2023-05-11T07:18:05.406Z,20.30
2023-05-11T07:19:05.181Z,20.90
2023-05-11T07:20:05.087Z,23.00
2023-05-11T07:21:05.074Z,19.60
2023-05-11T07:22:05.079Z,19.30
2023-05-11T07:23:05.096Z,20.80
2023-05-11T07:24:05.094Z,20.30
2023-05-11T07:25:05.195Z,25.60
2023-05-11T07:26:05.063Z,24.40
2023-05-11T07:27:05.028Z,25.90
2023-05-11T07:28:04.999Z,26.30
2023-05-11T07:29:04.990Z,25.50
2023-05-11T07:30:04.977Z,25.30
2023-05-11T07:31:05.217Z,26.10
2023-05-11T07:32:04.990Z,25.80
2023-05-11T07:33:05.001Z,25.00
2023-05-11T07:34:04.929Z,22.60
2023-05-11T07:35:04.921Z,25.80
2023-05-11T07:36:04.928Z,23.10
2023-05-11T07:37:04.927Z,21.40
2023-05-11T07:38:04.888Z,20.30
2023-05-11T07:39:04.882Z,21.90
2023-05-11T07:40:04.870Z,22.20
2023-05-11T07:41:06.865Z,22.80
2023-05-11T07:42:04.983Z,20.60
2023-05-11T07:43:04.969Z,22.50
2023-05-11T07:44:04.965Z,20.20
2023-05-11T07:45:05.078Z,21.50
2023-05-11T07:46:04.835Z,20.90
2023-05-11T07:47:04.873Z,20.80
2023-05-11T07:48:04.886Z,23.10
2023-05-11T07:49:15.800Z,22.80
2023-05-11T07:50:04.783Z,22.20
2023-05-11T07:51:04.762Z,21.60
2023-05-11T07:52:04.839Z,22.00
2023-05-11T07:53:04.725Z,19.40
2023-05-11T07:54:04.707Z,17.90
2023-05-11T07:55:04.709Z,23.30
2023-05-11T07:56:04.700Z,27.50
2023-05-11T07:57:04.694Z,24.20
2023-05-11T07:58:04.672Z,25.60
2023-05-11T07:59:04.658Z,23.80
2023-05-11T08:00:04.647Z,28.50
2023-05-11T08:01:04.673Z,26.90
2023-05-11T08:02:05.889Z,28.60
2023-05-11T08:03:04.813Z,29.80
2023-05-11T08:04:04.599Z,26.50
2023-05-11T08:05:04.976Z,25.70
2023-05-11T08:06:04.653Z,28.90
2023-05-11T08:07:04.662Z,27.40
2023-05-11T08:08:05.283Z,27.00
2023-05-11T08:09:04.685Z,22.30
2023-05-11T08:10:04.570Z,27.90
2023-05-11T08:11:04.562Z,26.20
2023-05-11T08:12:04.561Z,22.90
2023-05-11T08:13:04.553Z,24.40
2023-05-11T08:14:04.523Z,25.00
2023-05-11T08:15:04.569Z,26.10
2023-05-11T08:16:04.525Z,23.60
2023-05-11T08:17:04.511Z,26.30
2023-05-11T08:18:04.565Z,24.50
2023-05-11T08:19:04.580Z,24.30
2023-05-11T08:20:05.334Z,24.50
2023-05-11T08:21:04.425Z,24.00
2023-05-11T08:22:04.473Z,26.00
2023-05-11T08:23:04.411Z,25.80
2023-05-11T08:24:04.398Z,23.70
2023-05-11T08:25:04.440Z,27.10
2023-05-11T08:26:04.376Z,24.70
2023-05-11T08:27:04.412Z,25.00
2023-05-11T08:28:05.199Z,24.40
2023-05-11T08:29:04.362Z,23.60
2023-05-11T08:30:04.554Z,21.90
2023-05-11T08:31:04.318Z,24.90
2023-05-11T08:32:04.433Z,24.80
2023-05-11T08:33:13.704Z,22.70
2023-05-11T08:34:05.148Z,27.10
2023-05-11T08:35:04.472Z,25.50
2023-05-11T08:36:04.271Z,26.60
2023-05-11T08:37:04.305Z,24.20
2023-05-11T08:38:04.227Z,24.70
2023-05-11T08:39:04.236Z,25.70
2023-05-11T08:40:04.230Z,24.20
2023-05-11T08:41:04.241Z,25.70
2023-05-11T08:42:04.214Z,26.70
2023-05-11T08:43:04.190Z,24.80
2023-05-11T08:44:04.180Z,24.10
2023-05-11T08:45:04.172Z,28.60
2023-05-11T08:46:04.225Z,25.70
2023-05-11T08:47:21.005Z,24.90
2023-05-11T08:48:04.212Z,24.20
2023-05-11T08:49:04.134Z,23.50
2023-05-11T08:50:04.087Z,26.10
2023-05-11T08:51:04.110Z,23.40
2023-05-11T08:52:05.147Z,23.70
2023-05-11T08:53:04.097Z,22.20
2023-05-11T08:54:04.075Z,21.20
2023-05-11T08:55:04.045Z,20.90
2023-05-11T08:56:04.057Z,22.70
2023-05-11T08:57:04.043Z,21.30
2023-05-11T08:58:04.028Z,21.80
2023-05-11T08:59:04.006Z,23.30
2023-05-11T09:00:04.004Z,20.20
2023-05-11T09:01:04.008Z,20.80
2023-05-11T09:02:04.000Z,21.50
2023-05-11T09:03:04.020Z,20.90
2023-05-11T09:04:03.956Z,22.40
2023-05-11T09:05:04.024Z,18.70
2023-05-11T09:06:04.709Z,19.70
2023-05-11T09:07:03.923Z,20.30
2023-05-11T09:08:03.911Z,18.50
2023-05-11T09:09:03.889Z,17.10
2023-05-11T09:10:03.894Z,17.90
2023-05-11T09:11:03.878Z,18.50
2023-05-11T09:12:03.898Z,17.70
2023-05-11T09:13:03.857Z,20.20
2023-05-11T09:14:03.962Z,18.50
2023-05-11T09:15:03.841Z,19.40
2023-05-11T09:16:03.894Z,18.10
2023-05-11T09:17:03.954Z,17.00
2023-05-11T09:18:03.815Z,20.40
2023-05-11T09:19:04.146Z,19.10
2023-05-11T09:20:03.799Z,21.30
2023-05-11T09:21:03.761Z,18.70
2023-05-11T09:22:03.767Z,16.20
2023-05-11T09:23:03.761Z,18.70
2023-05-11T09:24:03.739Z,17.30
2023-05-11T09:25:03.702Z,18.50
2023-05-11T09:26:03.701Z,18.80
2023-05-11T09:27:03.731Z,16.70
2023-05-11T09:28:03.693Z,17.10
2023-05-11T09:29:04.095Z,18.80
2023-05-11T09:30:03.677Z,17.30
2023-05-11T09:31:03.740Z,17.90
2023-05-11T09:32:03.653Z,18.20
2023-05-11T09:33:03.678Z,16.90
2023-05-11T09:34:03.593Z,16.50
2023-05-11T09:35:03.591Z,15.80
2023-05-11T09:36:03.603Z,18.00
2023-05-11T09:37:03.586Z,15.30
2023-05-11T09:38:03.557Z,16.70
2023-05-11T09:39:03.582Z,16.40
2023-05-11T09:41:02.534Z,22.90
2023-05-11T09:42:03.543Z,19.70
2023-05-11T09:43:03.744Z,17.70
2023-05-11T09:44:03.523Z,16.40
2023-05-11T09:45:03.487Z,15.60
2023-05-11T09:46:03.490Z,19.00
2023-05-11T09:47:03.471Z,15.60
2023-05-11T09:48:03.462Z,16.30
2023-05-11T09:49:03.434Z,15.90
2023-05-11T09:50:03.433Z,16.80
2023-05-11T09:51:03.450Z,17.30
2023-05-11T09:52:03.426Z,15.10
2023-05-11T09:53:03.411Z,16.10
2023-05-11T09:54:03.378Z,15.60
2023-05-11T09:55:03.373Z,16.10
2023-05-11T09:56:03.366Z,16.60
2023-05-11T09:57:03.367Z,16.00
2023-05-11T09:58:03.355Z,20.70
2023-05-11T09:59:03.317Z,21.00
2023-05-11T10:00:03.306Z,24.50
2023-05-11T10:01:03.332Z,16.70
2023-05-11T10:02:03.412Z,15.70
2023-05-11T10:03:03.420Z,16.70
2023-05-11T10:04:21.419Z,14.80
2023-05-11T10:05:03.259Z,15.30
2023-05-11T10:06:03.250Z,16.70
2023-05-11T10:07:03.228Z,13.20
2023-05-11T10:08:03.348Z,15.70
2023-05-11T10:09:03.201Z,15.30
2023-05-11T10:10:03.204Z,15.60
2023-05-11T10:11:03.196Z,12.90
2023-05-11T10:12:03.188Z,15.80
2023-05-11T10:13:03.171Z,15.10
2023-05-11T10:14:03.146Z,15.00
2023-05-11T10:15:03.165Z,15.60
2023-05-11T10:16:03.148Z,17.30
2023-05-11T10:17:03.115Z,13.80
2023-05-11T10:18:03.151Z,14.00
2023-05-11T10:19:03.141Z,13.30
2023-05-11T10:20:03.093Z,14.90
2023-05-11T10:21:03.077Z,16.30
2023-05-11T10:22:03.105Z,14.50
2023-05-11T10:23:03.063Z,14.10
2023-05-11T10:24:03.041Z,14.70
2023-05-11T10:25:03.022Z,13.20
2023-05-11T10:26:03.012Z,13.20
2023-05-11T10:27:03.004Z,14.60
2023-05-11T10:28:03.006Z,13.80
2023-05-11T10:29:02.999Z,15.70
2023-05-11T10:30:02.970Z,15.80
2023-05-11T10:31:02.963Z,14.00
2023-05-11T10:32:02.990Z,13.90
2023-05-11T10:33:02.975Z,14.10
2023-05-11T10:34:02.928Z,13.50
2023-05-11T10:35:02.914Z,15.40
2023-05-11T10:36:02.906Z,14.50
2023-05-11T10:37:02.904Z,15.30
2023-05-11T10:38:02.902Z,13.70
2023-05-11T10:39:02.862Z,16.10
2023-05-11T10:40:02.869Z,13.60
2023-05-11T10:41:02.847Z,12.10
2023-05-11T10:42:02.837Z,12.20
2023-05-11T10:43:02.841Z,14.00
2023-05-11T10:44:02.811Z,15.00
2023-05-11T10:45:02.797Z,12.70
2023-05-11T10:46:02.830Z,16.30
2023-05-11T10:47:02.785Z,16.30
2023-05-11T10:48:02.868Z,15.80
2023-05-11T10:49:02.756Z,15.30
2023-05-11T10:50:02.761Z,15.40
2023-05-11T10:51:02.748Z,15.00
2023-05-11T10:52:02.734Z,15.10
2023-05-11T10:53:02.738Z,19.90
2023-05-11T10:54:02.694Z,17.60
2023-05-11T10:55:02.687Z,14.80
2023-05-11T10:56:02.675Z,14.80
2023-05-11T10:57:02.668Z,15.30
2023-05-11T10:58:02.669Z,16.40
2023-05-11T10:59:02.649Z,15.40
2023-05-11T11:00:02.630Z,16.60
2023-05-11T11:01:02.746Z,14.70
2023-05-11T11:02:02.629Z,13.90
2023-05-11T11:03:02.693Z,14.60
2023-05-11T11:04:02.589Z,16.10
2023-05-11T11:05:02.647Z,14.10
2023-05-11T11:06:02.626Z,14.20
2023-05-11T11:07:02.572Z,13.00
2023-05-11T11:08:02.566Z,13.80
2023-05-11T11:09:02.545Z,13.60
2023-05-11T11:10:02.556Z,14.70
2023-05-11T11:11:03.179Z,13.70
2023-05-11T11:12:02.502Z,13.60
2023-05-11T11:13:02.517Z,13.90
2023-05-11T11:14:02.486Z,15.10
2023-05-11T11:15:02.507Z,15.50
2023-05-11T11:16:02.467Z,12.60
2023-05-11T11:17:02.503Z,14.10
2023-05-11T11:18:02.518Z,14.40
2023-05-11T11:19:02.578Z,13.40
2023-05-11T11:20:02.429Z,14.40
2023-05-11T11:21:02.406Z,13.80
2023-05-11T11:22:03.268Z,14.90
2023-05-11T11:23:02.402Z,14.10
2023-05-11T11:24:02.379Z,12.80
2023-05-11T11:25:02.362Z,12.30
2023-05-11T11:26:02.358Z,12.30
2023-05-11T11:27:02.336Z,12.40
2023-05-11T11:28:02.336Z,12.30
2023-05-11T11:29:02.357Z,11.60
2023-05-11T11:30:02.331Z,11.50
2023-05-11T11:31:02.316Z,10.60
2023-05-11T11:32:02.302Z,10.40
2023-05-11T11:33:02.326Z,9.60
2023-05-11T11:34:02.284Z,9.90
2023-05-11T11:35:02.284Z,10.80
2023-05-11T11:36:02.226Z,9.90
2023-05-11T11:37:02.249Z,10.20
2023-05-11T11:38:02.258Z,8.50
2023-05-11T11:39:02.210Z,9.60
2023-05-11T11:40:13.070Z,8.30
2023-05-11T11:41:02.178Z,8.90
2023-05-11T11:42:02.161Z,8.90
2023-05-11T11:43:02.147Z,19.70
2023-05-11T11:44:02.169Z,19.20
2023-05-11T11:45:02.155Z,23.00
2023-05-11T11:46:02.264Z,20.40
2023-05-11T11:47:02.124Z,18.60
2023-05-11T11:48:02.140Z,17.70
2023-05-11T11:49:02.089Z,45.10
2023-05-11T11:50:02.081Z,30.70
2023-05-11T11:51:02.081Z,23.00
2023-05-11T11:52:02.070Z,10.40
2023-05-11T11:53:02.052Z,14.50
2023-05-11T11:54:02.035Z,8.40
2023-05-11T11:55:02.023Z,8.90
2023-05-11T11:56:02.010Z,6.90
2023-05-11T11:57:02.001Z,8.00
2023-05-11T11:58:02.019Z,7.80
2023-05-11T11:59:01.980Z,7.70
2023-05-11T12:00:01.961Z,7.60
2023-05-11T12:01:01.954Z,7.30
2023-05-11T12:02:01.937Z,8.20
2023-05-11T12:03:02.009Z,6.30
2023-05-11T12:04:02.031Z,7.10
2023-05-11T12:05:01.946Z,8.40
2023-05-11T12:06:01.893Z,8.70
2023-05-11T12:07:01.898Z,8.30
2023-05-11T12:08:01.895Z,9.50
2023-05-11T12:09:01.962Z,8.40
2023-05-11T12:10:01.881Z,8.80
2023-05-11T12:11:01.839Z,7.20
2023-05-11T12:12:01.819Z,9.10
2023-05-11T12:13:01.823Z,8.90
2023-05-11T12:14:01.813Z,8.90
2023-05-11T12:15:01.792Z,9.40
2023-05-11T12:16:01.844Z,10.80
2023-05-11T12:17:01.943Z,10.10
2023-05-11T12:18:01.787Z,10.00
2023-05-11T12:19:02.377Z,11.60
2023-05-11T12:20:01.756Z,13.70
2023-05-11T12:21:01.734Z,12.30
2023-05-11T12:22:01.732Z,14.60
2023-05-11T12:23:01.739Z,15.60
2023-05-11T12:24:01.721Z,12.40
2023-05-11T12:25:01.691Z,12.00
2023-05-11T12:26:01.689Z,12.50
2023-05-11T12:27:01.695Z,11.90
2023-05-11T12:28:01.667Z,12.90
2023-05-11T12:29:01.754Z,12.50
2023-05-11T12:30:01.694Z,12.00
2023-05-11T12:31:01.634Z,11.90
2023-05-11T12:32:01.889Z,12.30
2023-05-11T12:33:01.701Z,11.60
2023-05-11T12:34:01.658Z,11.00
2023-05-11T12:35:01.710Z,13.00
2023-05-11T12:36:01.557Z,11.20
2023-05-11T12:37:01.566Z,12.40
2023-05-11T12:38:01.584Z,10.20
2023-05-11T12:39:01.608Z,12.90
2023-05-11T12:40:01.548Z,11.20
2023-05-11T12:41:01.503Z,11.40
2023-05-11T12:42:01.501Z,13.30
2023-05-11T12:43:01.511Z,11.70
2023-05-11T12:44:02.283Z,12.40
2023-05-11T12:45:01.474Z,12.30
2023-05-11T12:46:01.473Z,12.10
2023-05-11T12:47:01.453Z,11.20
2023-05-11T12:48:01.502Z,13.80
2023-05-11T12:49:01.427Z,9.00
2023-05-11T12:50:01.421Z,12.70
2023-05-11T12:51:01.422Z,12.00
2023-05-11T12:52:01.381Z,12.20
2023-05-11T12:53:01.440Z,11.70
2023-05-11T12:54:01.438Z,11.90